Time;durP1;ratioP1;P1;durP2;ratioP2;P2;SDS_P1;SDS_P2;PMS_P1;PMS_P2;Temp;Humidity;BMP_temperature;BMP_pressure;BME280_temperature;BME280_humidity;BME280_pressure;Samples;Min_cycle;Max_cycle;Signal;HPM_P1;HPM_P2
2022/06/18 00:02:15;;;;;;;5.47;4.97;;;;;;;17.88;80.07;100932.94;6210713;23;20020;-70
2022/06/18 00:04:42;;;;;;;6.25;4.75;;;;;;;17.90;80.64;100943.63;6211019;23;20007;-70
2022/06/18 00:07:12;;;;;;;5.80;5.20;;;;;;;17.83;80.22;100948.84;6210947;23;20071;-71
2022/06/18 00:09:41;;;;;;;6.18;5.20;;;;;;;17.83;80.89;100948.84;6210927;23;20000;-71
2022/06/18 00:15:11;;;;;;;8.77;6.13;;;;;;;17.74;81.25;100938.16;6210866;23;20063;-71
2022/06/18 00:17:37;;;;;;;6.68;5.20;;;;;;;17.76;81.35;100950.53;6210843;23;20014;-71
2022/06/18 00:20:03;;;;;;;7.75;5.65;;;;;;;17.74;80.97;100951.72;6210937;23;19996;-71
2022/06/18 00:22:29;;;;;;;7.10;5.90;;;;;;;17.68;81.39;100944.25;6211029;23;20503;-71
2022/06/18 00:24:54;;;;;;;6.68;5.72;;;;;;;17.48;81.20;100923.84;6211212;23;20008;-71
2022/06/18 00:27:20;;;;;;;7.05;6.35;;;;;;;17.60;81.47;100946.91;6211274;23;20016;-71
2022/06/18 00:29:48;;;;;;;7.22;5.75;;;;;;;17.50;81.73;100943.50;6211046;23;20044;-71
2022/06/18 00:32:13;;;;;;;8.52;6.10;;;;;;;17.38;81.84;100940.19;6210780;23;20013;-71
2022/06/18 00:34:39;;;;;;;8.13;6.28;;;;;;;17.26;82.52;100925.25;6210819;23;20441;-71
2022/06/18 00:37:05;;;;;;;8.05;6.20;;;;;;;17.39;82.43;100952.75;6210839;23;20013;-70
2022/06/18 00:39:31;;;;;;;7.28;5.60;;;;;;;17.35;82.61;100950.53;6210705;23;20012;-71
2022/06/18 00:42:05;;;;;;;7.95;5.75;;;;;;;17.28;82.70;100944.06;6210732;23;20035;-70
2022/06/18 00:44:37;;;;;;;8.45;6.40;;;;;;;17.24;82.97;100945.38;6210942;23;20008;-71
2022/06/18 00:47:22;;;;;;;6.60;5.97;;;;;;;17.20;83.50;100952.13;6210529;23;20016;-71
2022/06/18 00:50:14;;;;;;;7.18;6.47;;;;;;;17.13;83.67;100946.53;6210691;23;20008;-71
2022/06/18 00:52:48;;;;;;;7.78;6.32;;;;;;;17.09;84.44;100955.13;6210727;23;20122;-71
2022/06/18 00:55:21;;;;;;;7.43;6.47;;;;;;;17.04;84.34;100954.75;6210528;23;20623;-70
2022/06/18 00:57:55;;;;;;;8.73;6.57;;;;;;;16.95;84.83;100945.72;6210781;23;20016;-71
2022/06/18 01:00:28;;;;;;;7.90;6.60;;;;;;;16.94;84.48;100951.31;6183955;23;20035;-71
2022/06/18 01:02:55;;;;;;;8.80;6.57;;;;;;;16.90;84.83;100952.66;6184297;23;20107;-71
2022/06/18 01:05:26;;;;;;;7.18;6.22;;;;;;;16.87;84.93;100950.25;6210359;23;20034;-70
2022/06/18 01:07:56;;;;;;;8.60;6.07;;;;;;;16.84;85.29;100956.00;6210840;23;20074;-71
2022/06/18 01:10:42;;;;;;;7.43;6.60;;;;;;;16.82;85.33;100958.00;6210527;23;20058;-71
2022/06/18 01:13:13;;;;;;;9.50;6.93;;;;;;;16.78;85.72;100956.63;6210205;23;20004;-71
2022/06/18 01:15:41;;;;;;;7.10;6.40;;;;;;;16.65;85.92;100946.22;6183730;23;20091;-71
2022/06/18 01:18:07;;;;;;;9.05;7.03;;;;;;;16.71;85.86;100960.97;6210045;23;20031;-71
2022/06/18 01:20:42;;;;;;;8.38;6.05;;;;;;;16.68;85.79;100958.59;6210519;23;20027;-71
2022/06/18 01:23:17;;;;;;;7.28;6.45;;;;;;;16.64;86.21;100963.44;6210120;23;20001;-71
2022/06/18 01:25:42;;;;;;;8.40;6.60;;;;;;;16.62;85.97;100964.63;6210454;23;20612;-70
2022/06/18 01:28:09;;;;;;;6.90;6.30;;;;;;;16.62;86.05;100957.38;6210267;23;20005;-71
2022/06/18 01:30:39;;;;;;;8.68;6.82;;;;;;;16.60;85.83;100958.53;6210257;23;20017;-71
2022/06/18 01:33:07;;;;;;;7.40;6.60;;;;;;;16.57;86.13;100953.44;6210377;23;20019;-71
2022/06/18 01:35:36;;;;;;;7.55;6.75;;;;;;;16.60;85.95;100958.53;6210167;23;20421;-71
2022/06/18 01:38:04;;;;;;;7.97;6.80;;;;;;;16.58;85.69;100955.13;6210463;23;20059;-71
2022/06/18 01:40:37;;;;;;;7.75;6.07;;;;;;;16.56;84.87;100954.41;6183736;23;20005;-71
2022/06/18 01:43:05;;;;;;;10.43;6.70;;;;;;;16.54;84.54;100954.56;6210610;23;20352;-72
2022/06/18 01:45:35;;;;;;;7.93;6.65;;;;;;;16.51;84.64;100957.59;6210308;23;20016;-71
2022/06/18 01:48:25;;;;;;;7.28;6.53;;;;;;;16.49;84.26;100951.50;6209967;23;20086;-70
2022/06/18 01:51:06;;;;;;;9.15;6.95;;;;;;;16.47;84.32;100953.50;6209786;23;20009;-71
2022/06/18 01:53:39;;;;;;;9.55;6.65;;;;;;;16.45;84.42;100957.38;6210341;23;20000;-71
2022/06/18 01:56:22;;;;;;;9.57;6.13;;;;;;;16.40;84.60;100948.84;6183521;23;20015;-71
2022/06/18 01:59:17;;;;;;;6.68;5.78;;;;;;;16.37;83.95;100955.41;6210536;23;20094;-71
2022/06/18 02:01:45;;;;;;;9.32;6.07;;;;;;;16.36;83.67;100950.16;6206967;23;20020;-71
2022/06/18 02:04:12;;;;;;;7.13;5.75;;;;;;;16.35;83.58;100953.88;6209763;23;20708;-71
2022/06/18 02:06:38;;;;;;;6.50;5.90;;;;;;;16.37;83.80;100957.28;6210139;23;20001;-71
2022/06/18 02:09:32;;;;;;;6.53;5.88;;;;;;;16.33;83.28;100958.59;6210004;23;20075;-71
2022/06/18 02:12:02;;;;;;;6.28;5.68;;;;;;;16.31;83.94;100956.03;6198210;23;20001;-71
2022/06/18 02:14:29;;;;;;;6.82;5.93;;;;;;;16.23;83.88;100952.41;6209911;23;20059;-70
2022/06/18 02:16:56;;;;;;;8.38;5.80;;;;;;;16.23;83.85;100942.44;6210256;23;20240;-71
2022/06/18 02:19:21;;;;;;;6.25;5.60;;;;;;;16.25;84.33;100955.84;6209784;23;20434;-71
2022/06/18 02:21:52;;;;;;;7.03;5.43;;;;;;;16.23;84.78;100947.88;6210005;23;20007;-70
2022/06/18 02:24:19;;;;;;;8.77;6.45;;;;;;;16.20;85.32;100950.00;6209914;23;20446;-71
2022/06/18 02:26:47;;;;;;;8.45;5.70;;;;;;;16.10;85.36;100938.41;6183597;23;20001;-71
2022/06/18 02:29:26;;;;;;;6.88;6.18;;;;;;;16.12;85.19;100944.53;6210042;23;20015;-71
2022/06/18 02:31:52;;;;;;;6.53;5.82;;;;;;;16.11;84.91;100948.22;6183625;23;20008;-71
2022/06/18 02:34:22;;;;;;;7.43;5.80;;;;;;;16.04;84.39;100934.50;6209244;23;20001;-71
2022/06/18 02:36:48;;;;;;;7.93;5.57;;;;;;;16.13;84.45;100962.47;6209436;23;20410;-71
2022/06/18 02:39:34;;;;;;;7.68;6.00;;;;;;;16.11;84.50;100967.19;6209995;23;19997;-71
2022/06/18 02:42:12;;;;;;;10.98;5.78;;;;;;;16.04;84.60;100960.69;6210176;23;20008;-71
2022/06/18 02:44:42;;;;;;;7.20;5.55;;;;;;;16.08;84.55;100968.34;6183107;23;20005;-71
2022/06/18 02:47:08;;;;;;;7.90;5.35;;;;;;;16.04;84.06;100972.38;6209531;23;20016;-71
2022/06/18 02:49:37;;;;;;;6.13;5.53;;;;;;;16.04;84.04;100971.50;6183103;23;20009;-71
2022/06/18 02:52:05;;;;;;;7.63;5.47;;;;;;;16.02;84.32;100984.38;6209854;23;20039;-71
2022/06/18 02:54:31;;;;;;;7.80;6.03;;;;;;;16.01;85.07;100974.53;6209743;23;20082;-71
2022/06/18 02:57:00;;;;;;;7.68;5.53;;;;;;;16.01;85.13;100977.22;6209941;23;20007;-71
2022/06/18 02:59:27;;;;;;;9.85;5.57;;;;;;;16.01;85.03;100977.22;6183289;23;20012;-71
2022/06/18 03:01:53;;;;;;;8.70;5.97;;;;;;;16.00;84.53;100979.09;6210656;23;20088;-71
2022/06/18 03:04:18;;;;;;;6.25;5.65;;;;;;;15.99;84.24;100976.53;6211560;23;20061;-71
2022/06/18 03:06:44;;;;;;;10.43;5.65;;;;;;;15.94;84.53;100971.59;6211897;23;20009;-71
2022/06/18 03:09:10;;;;;;;7.57;5.28;;;;;;;15.89;84.97;100972.06;6211386;23;20007;-71
2022/06/18 03:14:21;;;;;;;12.60;6.25;;;;;;;15.89;85.57;100982.88;6211456;23;20015;-71
2022/06/18 03:16:47;;;;;;;9.00;5.30;;;;;;;15.89;85.27;100977.47;6211682;23;20047;-71
2022/06/18 03:19:33;;;;;;;8.13;6.22;;;;;;;15.88;85.44;100986.59;6211569;23;19996;-71
2022/06/18 03:22:08;;;;;;;8.70;6.30;;;;;;;15.89;85.73;100988.28;6211853;23;20283;-71
2022/06/18 03:24:34;;;;;;;7.75;5.40;;;;;;;15.92;85.79;100989.00;6211652;23;20000;-71
2022/06/18 03:26:59;;;;;;;8.27;5.68;;;;;;;15.94;85.71;100988.66;6211981;23;20022;-71
2022/06/18 03:29:25;;;;;;;11.35;5.63;;;;;;;15.96;86.20;100991.22;6211620;23;20008;-71
2022/06/18 03:31:50;;;;;;;11.82;5.80;;;;;;;16.01;86.38;100974.53;6210188;23;20098;-71
2022/06/18 03:34:16;;;;;;;8.50;5.32;;;;;;;16.12;86.10;100985.16;6184735;23;20012;-71
2022/06/18 03:36:41;;;;;;;7.60;5.45;;;;;;;16.15;85.99;100968.59;6211335;23;20008;-71
2022/06/18 03:39:09;;;;;;;8.27;5.82;;;;;;;16.29;85.22;100979.72;6211561;23;20007;-71
2022/06/18 03:41:34;;;;;;;8.18;5.32;;;;;;;16.36;84.45;100975.41;6211669;23;20005;-71
2022/06/18 03:44:00;;;;;;;8.10;5.57;;;;;;;16.56;83.44;100984.22;6211642;23;20814;-72
2022/06/18 03:46:25;;;;;;;6.55;5.75;;;;;;;16.73;82.48;100988.78;6211005;23;20023;-71
2022/06/18 03:49:00;;;;;;;7.70;5.82;;;;;;;16.89;80.82;100981.59;6202815;23;20039;-71
2022/06/18 03:51:26;;;;;;;5.88;5.28;;;;;;;17.06;80.14;100982.56;6210991;23;20008;-71
2022/06/18 03:53:52;;;;;;;6.90;5.30;;;;;;;17.18;79.61;100983.97;6211374;23;20011;-71
2022/06/18 03:56:21;;;;;;;8.25;5.65;;;;;;;17.33;78.52;100982.38;6211114;23;20016;-72
2022/06/18 03:58:47;;;;;;;6.82;4.97;;;;;;;17.47;78.21;100974.50;6211523;23;20050;-71
2022/06/18 04:01:16;;;;;;;6.32;5.07;;;;;;;17.57;77.35;100971.66;6211003;23;20084;-71
2022/06/18 04:03:42;;;;;;;5.50;5.00;;;;;;;17.74;76.95;100974.25;6211223;23;20120;-71
2022/06/18 04:06:09;;;;;;;6.40;5.10;;;;;;;17.91;75.85;100972.47;6211382;23;20032;-71
2022/06/18 04:08:35;;;;;;;5.00;4.50;;;;;;;18.02;75.37;100969.41;6211390;23;20464;-71
2022/06/18 04:11:00;;;;;;;7.25;5.28;;;;;;;18.17;73.70;100981.34;6185080;23;20004;-71
2022/06/18 04:13:28;;;;;;;5.55;4.88;;;;;;;18.30;73.56;100975.41;6210345;23;20461;-71
2022/06/18 04:15:54;;;;;;;6.30;4.72;;;;;;;18.48;72.87;100971.56;6211229;23;20005;-71
2022/06/18 04:18:20;;;;;;;5.65;4.40;;;;;;;18.61;72.50;100984.63;6210835;23;20004;-70
2022/06/18 04:20:45;;;;;;;6.28;5.10;;;;;;;18.72;72.78;100985.16;6211133;23;20334;-71
2022/06/18 04:23:14;;;;;;;17.38;10.70;;;;;;;18.84;72.12;100983.78;6210556;23;19996;-71
2022/06/18 04:25:40;;;;;;;38.50;23.67;;;;;;;19.02;71.44;100978.97;6184322;23;20417;-71
2022/06/18 04:28:05;;;;;;;22.95;14.65;;;;;;;19.19;69.91;100994.22;6210964;23;20079;-71
2022/06/18 04:30:32;;;;;;;18.75;9.82;;;;;;;19.28;68.55;100982.34;6210722;23;20005;-71
2022/06/18 04:32:59;;;;;;;15.82;8.93;;;;;;;19.42;67.27;100994.38;6210663;23;20638;-70
2022/06/18 04:35:27;;;;;;;22.08;12.90;;;;;;;19.54;66.98;100985.66;6211714;23;20099;-72
2022/06/18 04:37:53;;;;;;;42.15;23.25;;;;;;;19.67;66.46;100985.13;6210753;23;20084;-72
2022/06/18 04:40:31;;;;;;;48.83;27.40;;;;;;;19.81;66.54;100990.66;6210592;23;20083;-72
2022/06/18 04:42:58;;;;;;;32.75;17.65;;;;;;;19.96;65.28;100996.22;6184116;23;20037;-72
2022/06/18 04:45:23;;;;;;;26.25;15.48;;;;;;;20.15;63.43;100993.91;6210386;23;20407;-72
2022/06/18 04:47:49;;;;;;;11.90;7.80;;;;;;;20.26;63.27;100995.38;6210404;23;20027;-72
2022/06/18 04:50:23;;;;;;;8.57;5.88;;;;;;;20.38;62.95;101002.09;6210495;23;20000;-72
2022/06/18 04:52:48;;;;;;;6.38;4.90;;;;;;;20.47;61.35;100989.25;6184140;23;20016;-72
2022/06/18 04:55:14;;;;;;;9.32;4.75;;;;;;;20.62;61.77;100995.59;6210518;23;20005;-72
2022/06/18 04:57:40;;;;;;;9.88;6.78;;;;;;;20.77;62.07;101007.41;6210812;23;20414;-72
2022/06/18 05:00:09;;;;;;;19.15;10.85;;;;;;;20.83;61.64;100987.59;6210802;23;20463;-72
2022/06/18 05:02:37;;;;;;;29.00;15.50;;;;;;;21.04;61.16;101015.03;6210811;23;20098;-72
2022/06/18 05:05:06;;;;;;;17.98;9.68;;;;;;;21.11;60.31;101005.91;6210872;23;20059;-72
2022/06/18 05:07:32;;;;;;;11.52;6.15;;;;;;;21.21;59.94;101006.50;6183776;23;20008;-72
2022/06/18 05:09:57;;;;;;;9.85;4.78;;;;;;;21.16;60.06;101010.81;6210688;23;20007;-72
2022/06/18 05:12:23;;;;;;;6.00;4.55;;;;;;;21.20;60.11;101015.72;6210150;23;20009;-71
2022/06/18 05:14:48;;;;;;;9.52;4.72;;;;;;;21.29;60.16;101014.63;6210416;23;20004;-72
2022/06/18 05:17:23;;;;;;;9.75;4.60;;;;;;;21.46;59.94;101015.25;6210038;23;20011;-72
2022/06/18 05:19:49;;;;;;;11.98;6.07;;;;;;;21.59;59.44;101016.31;6210639;23;20000;-72
2022/06/18 05:22:14;;;;;;;10.10;5.38;;;;;;;21.72;58.90;101019.22;6210161;23;20011;-72
2022/06/18 05:24:40;;;;;;;5.88;4.18;;;;;;;21.85;58.28;101019.44;6210407;23;20060;-72
2022/06/18 05:27:06;;;;;;;8.20;4.00;;;;;;;22.02;58.29;101017.31;6210424;23;20000;-72
2022/06/18 05:29:31;;;;;;;6.40;4.25;;;;;;;22.20;57.04;101020.50;6183504;23;20012;-72
2022/06/18 05:31:57;;;;;;;14.65;6.45;;;;;;;22.30;56.92;101016.41;6183672;23;20468;-72
2022/06/18 05:34:23;;;;;;;11.35;6.70;;;;;;;22.44;56.42;101022.03;6210044;23;20066;-72
2022/06/18 05:36:49;;;;;;;13.13;6.57;;;;;;;22.62;54.96;101019.69;6210260;23;20605;-72
2022/06/18 05:39:39;;;;;;;8.55;5.35;;;;;;;22.75;54.31;101028.03;6183522;23;20004;-72
2022/06/18 05:42:04;;;;;;;6.53;3.38;;;;;;;22.88;53.86;101017.22;6209961;23;20059;-71
2022/06/18 05:44:30;;;;;;;7.60;3.67;;;;;;;23.09;53.69;101022.66;6211220;23;20012;-71
2022/06/18 05:46:55;;;;;;;5.82;3.20;;;;;;;23.28;52.51;101027.50;6211361;23;20013;-70
2022/06/18 05:49:21;;;;;;;4.00;2.75;;;;;;;23.39;51.90;101032.41;6211668;23;20083;-70
2022/06/18 05:51:46;;;;;;;6.95;3.72;;;;;;;23.59;50.74;101030.63;6211764;23;20442;-69
2022/06/18 05:54:12;;;;;;;4.72;2.92;;;;;;;23.64;50.95;101030.88;6212246;23;20097;-69
2022/06/18 05:56:37;;;;;;;5.93;2.80;;;;;;;23.81;50.78;101033.09;6211723;23;20063;-70
2022/06/18 05:59:03;;;;;;;3.88;2.75;;;;;;;23.92;50.55;101035.25;6211748;23;20019;-70
2022/06/18 06:01:28;;;;;;;7.90;2.67;;;;;;;24.02;50.44;101035.75;6211609;23;20012;-70
2022/06/18 06:03:54;;;;;;;4.13;2.70;;;;;;;24.16;49.27;101043.00;6211985;23;20012;-70
2022/06/18 06:06:19;;;;;;;8.45;2.92;;;;;;;24.17;49.72;101030.13;6211750;23;20087;-70
2022/06/18 06:08:45;;;;;;;4.70;2.63;;;;;;;24.35;48.75;101036.72;6184798;23;20016;-70
2022/06/18 06:11:29;;;;;;;4.13;2.53;;;;;;;24.52;48.44;101039.06;6211632;23;20009;-70
2022/06/18 06:13:55;;;;;;;8.82;2.35;;;;;;;24.67;47.67;101029.66;6211767;23;20011;-70
2022/06/18 06:16:21;;;;;;;3.35;2.10;;;;;;;24.80;47.03;101037.06;6211351;23;20080;-70
2022/06/18 06:18:47;;;;;;;4.25;2.65;;;;;;;24.94;46.88;101038.75;6211466;23;20024;-70
2022/06/18 06:21:13;;;;;;;6.03;2.15;;;;;;;25.02;46.44;101039.38;6211882;23;20004;-70
2022/06/18 06:23:38;;;;;;;6.82;2.30;;;;;;;25.06;46.92;101040.69;6209971;23;20409;-71
2022/06/18 06:26:14;;;;;;;4.95;1.83;;;;;;;25.18;44.88;101027.16;6211574;23;20452;-70
2022/06/18 06:28:43;;;;;;;7.93;2.00;;;;;;;25.24;45.44;101032.63;6185169;23;20068;-70
2022/06/18 06:31:08;;;;;;;9.45;2.53;;;;;;;25.25;45.89;101026.09;6184907;23;20084;-70
2022/06/18 06:33:34;;;;;;;6.32;2.42;;;;;;;25.41;45.11;101046.81;6211776;23;20019;-71
2022/06/18 06:35:59;;;;;;;2.83;2.08;;;;;;;25.53;44.82;101039.59;6185292;23;20020;-70
2022/06/18 06:38:25;;;;;;;4.38;1.88;;;;;;;25.62;44.45;101038.31;6214223;23;20506;-71
2022/06/18 06:40:50;;;;;;;6.35;1.95;;;;;;;25.70;43.46;101043.59;6186960;23;20005;-71
2022/06/18 06:43:17;;;;;;;2.15;1.67;;;;;;;25.81;43.08;101040.16;6214070;23;20453;-71
2022/06/18 06:45:43;;;;;;;2.35;1.58;;;;;;;25.91;42.41;101046.91;6213536;23;20426;-71
2022/06/18 06:48:09;;;;;;;2.50;1.70;;;;;;;25.98;42.55;101039.50;6213156;23;20012;-71
2022/06/18 06:50:35;;;;;;;4.07;1.75;;;;;;;26.08;41.32;101044.53;6213116;23;20066;-71
2022/06/18 06:53:00;;;;;;;2.10;1.33;;;;;;;26.11;41.45;101050.47;6213496;23;20426;-71
2022/06/18 06:58:18;;;;;;;1.90;1.65;;;;;;;26.25;41.26;101051.25;6213577;23;20015;-70
2022/06/18 07:00:47;;;;;;;3.22;1.50;;;;;;;26.36;40.69;101045.91;6213458;23;20414;-71
2022/06/18 07:03:32;;;;;;;5.28;1.52;;;;;;;26.38;40.70;101021.75;6213363;23;20016;-71
2022/06/18 07:05:59;;;;;;;2.78;1.63;;;;;;;26.56;39.52;101028.44;6213015;23;20017;-71
2022/06/18 07:08:25;;;;;;;3.13;1.30;;;;;;;26.60;40.31;101040.69;6213202;23;20170;-71
2022/06/18 07:10:51;;;;;;;4.20;1.83;;;;;;;26.54;39.81;101046.00;6213234;23;20009;-71
2022/06/18 07:13:18;;;;;;;3.85;1.25;;;;;;;26.59;39.75;101031.59;6213309;23;20080;-71
2022/06/18 07:15:44;;;;;;;7.32;1.65;;;;;;;26.70;39.66;101038.31;6213041;23;20005;-71
2022/06/18 07:18:17;;;;;;;2.17;1.30;;;;;;;26.78;39.88;101041.66;6186376;23;20092;-71
2022/06/18 07:20:42;;;;;;;5.70;2.20;;;;;;;26.75;39.66;101035.75;6213001;23;20005;-71
2022/06/18 07:23:08;;;;;;;3.13;1.85;;;;;;;26.75;39.62;101036.59;6213082;23;20079;-71
2022/06/18 07:25:34;;;;;;;3.65;1.30;;;;;;;26.73;38.73;101033.25;6212927;23;20009;-71
2022/06/18 07:27:59;;;;;;;2.53;1.60;;;;;;;26.73;38.40;101026.88;6212947;23;20035;-71
2022/06/18 07:30:26;;;;;;;2.40;1.30;;;;;;;26.82;39.00;101031.88;6212754;23;20016;-71
2022/06/18 07:32:52;;;;;;;3.85;1.50;;;;;;;26.84;38.78;101032.50;6212895;23;20023;-71
2022/06/18 07:35:25;;;;;;;1.85;1.50;;;;;;;26.90;38.77;101028.00;6186441;23;20012;-71
2022/06/18 07:37:51;;;;;;;2.53;1.58;;;;;;;26.95;38.23;101031.78;6213027;23;20131;-71
2022/06/18 07:40:17;;;;;;;2.55;1.90;;;;;;;27.07;37.30;101029.13;6213106;23;20024;-71
2022/06/18 07:42:45;;;;;;;2.63;1.23;;;;;;;27.11;37.57;101028.47;6212612;23;20012;-71
2022/06/18 07:45:19;;;;;;;3.35;1.20;;;;;;;27.18;37.29;101025.69;6212856;23;20011;-71
2022/06/18 07:47:46;;;;;;;4.03;1.60;;;;;;;27.25;36.34;101037.50;6180473;23;20457;-71
2022/06/18 07:50:13;;;;;;;1.20;1.10;;;;;;;27.33;36.62;101029.78;6181042;23;20005;-71
2022/06/18 07:52:38;;;;;;;4.43;2.00;;;;;;;27.35;36.57;101024.91;6181100;23;20377;-71
2022/06/18 07:55:05;;;;;;;3.45;1.70;;;;;;;27.41;37.21;101031.41;6182706;23;20667;-71
2022/06/18 07:57:31;;;;;;;1.80;1.60;;;;;;;27.40;37.34;101021.47;6182644;23;20009;-71
2022/06/18 07:59:57;;;;;;;1.65;1.50;;;;;;;27.48;37.75;101023.94;6182510;23;20005;-71
2022/06/18 08:02:23;;;;;;;1.67;1.33;;;;;;;27.58;35.92;101010.47;6182833;23;20433;-71
2022/06/18 08:04:48;;;;;;;2.28;1.35;;;;;;;27.73;35.58;101031.06;6182727;23;20012;-71
2022/06/18 08:07:14;;;;;;;2.20;1.20;;;;;;;27.63;35.46;101025.25;6182876;23;20060;-70
2022/06/18 08:09:39;;;;;;;3.28;1.80;;;;;;;27.61;35.95;101032.06;6182763;23;20001;-71
2022/06/18 08:12:05;;;;;;;2.88;1.65;;;;;;;27.58;35.89;101030.59;6182682;23;20008;-70
2022/06/18 08:14:30;;;;;;;2.53;1.33;;;;;;;27.53;35.38;101024.09;6182455;23;20017;-70
2022/06/18 08:16:56;;;;;;;2.95;1.17;;;;;;;27.48;35.98;101026.69;6182403;23;20004;-70
2022/06/18 08:19:21;;;;;;;1.67;1.13;;;;;;;27.48;35.38;101026.69;6182521;23;20032;-71
2022/06/18 08:21:47;;;;;;;3.33;1.35;;;;;;;27.50;35.80;101027.31;6182593;23;20044;-70
2022/06/18 08:24:21;;;;;;;2.80;1.33;;;;;;;27.58;36.03;101021.47;6182463;23;20119;-70
2022/06/18 08:26:49;;;;;;;2.90;1.40;;;;;;;27.62;36.31;101014.44;6182528;23;20415;-71
2022/06/18 08:29:18;;;;;;;3.10;1.17;;;;;;;27.73;35.77;101024.72;6180804;23;20068;-71
2022/06/18 08:31:44;;;;;;;1.90;1.08;;;;;;;27.81;35.73;101011.47;6180691;23;20005;-71
2022/06/18 08:34:10;;;;;;;3.05;1.52;;;;;;;27.73;35.71;101016.47;6182445;23;20521;-71
2022/06/18 08:36:37;;;;;;;2.28;1.05;;;;;;;27.77;35.40;101020.44;6182118;23;20017;-71
2022/06/18 08:39:04;;;;;;;2.08;1.20;;;;;;;27.80;35.32;101015.31;6182256;23;20106;-71
2022/06/18 08:42:07;;;;;;;3.03;1.65;;;;;;;27.87;35.33;101013.34;6182126;23;20390;-70
2022/06/18 08:44:55;;;;;;;3.33;1.40;;;;;;;27.89;35.56;101005.66;6182238;23;20008;-71
2022/06/18 08:47:29;;;;;;;3.58;1.45;;;;;;;27.89;35.20;101018.63;6184876;23;20024;-70
2022/06/18 08:50:22;;;;;;;3.08;1.20;;;;;;;27.90;34.83;101021.16;6212152;23;20004;-70
2022/06/18 08:53:02;;;;;;;2.80;1.20;;;;;;;27.88;34.87;101017.78;6212456;23;20027;-71
2022/06/18 08:55:30;;;;;;;3.35;1.50;;;;;;;27.93;35.10;101023.47;6212114;23;20349;-71
2022/06/18 08:58:09;;;;;;;3.97;1.48;;;;;;;27.97;34.38;101008.13;6212028;23;20019;-70
2022/06/18 09:01:01;;;;;;;1.70;1.20;;;;;;;28.07;35.08;101019.47;6211935;23;20004;-71
2022/06/18 09:04:05;;;;;;;2.58;1.13;;;;;;;28.16;34.19;101018.06;6212249;23;20019;-71
2022/06/18 09:06:46;;;;;;;2.17;1.25;;;;;;;28.17;34.46;101013.38;6179924;23;20047;-72
2022/06/18 09:09:25;;;;;;;5.38;1.30;;;;;;;28.32;33.45;101011.91;6212269;23;20019;-72
2022/06/18 09:12:17;;;;;;;5.68;1.58;;;;;;;28.41;34.10;101016.00;6212059;23;20031;-72
2022/06/18 09:14:51;;;;;;;2.47;1.40;;;;;;;28.55;33.13;101013.94;6211975;23;20027;-72
2022/06/18 09:17:36;;;;;;;2.28;1.40;;;;;;;28.52;33.53;101018.03;6211984;23;20012;-72
2022/06/18 09:20:04;;;;;;;5.47;1.45;;;;;;;28.48;34.07;101019.56;6211928;23;20008;-72
2022/06/18 09:22:33;;;;;;;7.55;1.85;;;;;;;28.40;33.75;101016.25;6211880;23;20797;-73
2022/06/18 09:25:10;;;;;;;2.03;1.45;;;;;;;28.43;33.64;101013.88;6211754;23;20084;-72
2022/06/18 09:28:06;;;;;;;3.65;1.67;;;;;;;28.38;33.88;101013.72;6211508;23;20523;-73
2022/06/18 09:30:44;;;;;;;3.13;1.50;;;;;;;28.35;34.25;101013.34;6196124;23;20342;-72
2022/06/18 09:33:27;;;;;;;3.72;1.48;;;;;;;28.29;34.25;101006.00;6211712;23;20421;-73
2022/06/18 09:35:56;;;;;;;3.92;1.75;;;;;;;28.33;34.22;101007.22;6211649;23;20010;-72
2022/06/18 09:38:26;;;;;;;2.00;1.52;;;;;;;28.32;34.61;101005.53;6211867;23;20361;-72
2022/06/18 09:40:55;;;;;;;3.53;1.88;;;;;;;28.39;34.38;101001.63;6212046;23;20000;-72
2022/06/18 09:43:32;;;;;;;4.25;1.60;;;;;;;28.32;34.22;101000.88;6211926;23;20079;-73
2022/06/18 09:46:01;;;;;;;2.17;1.77;;;;;;;28.30;33.66;101005.78;6211592;23;20365;-73
2022/06/18 09:48:27;;;;;;;4.65;1.88;;;;;;;28.26;33.96;101007.31;6211396;23;20016;-72
2022/06/18 09:51:02;;;;;;;4.22;1.80;;;;;;;28.27;33.79;101002.63;6211588;23;20001;-73
2022/06/18 09:53:34;;;;;;;5.50;2.10;;;;;;;28.38;33.80;101005.44;6211672;23;20036;-73
2022/06/18 09:56:13;;;;;;;2.45;1.75;;;;;;;28.40;34.04;100995.00;6211572;23;20004;-72
2022/06/18 09:58:51;;;;;;;3.33;1.80;;;;;;;28.40;33.58;100989.50;6211399;23;20011;-72
2022/06/18 10:01:25;;;;;;;3.33;1.70;;;;;;;28.39;33.22;100993.34;6211689;23;20009;-73
2022/06/18 10:06:53;;;;;;;2.05;1.60;;;;;;;28.49;33.17;100971.56;6211325;23;20016;-73
2022/06/18 10:09:34;;;;;;;3.67;2.60;;;;;;;28.67;32.75;100976.16;6211511;23;20004;-73
2022/06/18 10:12:12;;;;;;;2.63;1.60;;;;;;;28.78;32.49;100968.97;6211056;23;20008;-73
2022/06/18 10:14:37;;;;;;;4.50;1.63;;;;;;;28.84;32.40;100970.78;6184790;23;20338;-73
2022/06/18 10:17:21;;;;;;;2.13;1.75;;;;;;;28.86;32.72;100960.34;6211341;23;20005;-73
2022/06/18 10:19:52;;;;;;;2.58;1.70;;;;;;;28.91;32.16;100957.69;6211392;23;20083;-73
2022/06/18 10:22:23;;;;;;;2.53;1.90;;;;;;;28.88;32.81;100955.44;6211735;23;20062;-73
2022/06/18 10:25:02;;;;;;;4.47;1.85;;;;;;;28.79;32.25;100943.06;6211585;23;20031;-73
2022/06/18 10:27:57;;;;;;;7.05;1.90;;;;;;;28.77;32.73;100951.56;6184521;23;20095;-73
2022/06/18 10:30:37;;;;;;;3.67;1.65;;;;;;;28.76;33.41;100952.66;6168499;23;20012;-73
2022/06/18 10:33:38;;;;;;;4.07;1.63;;;;;;;28.75;32.48;100955.66;6211792;23;20005;-73
2022/06/18 10:36:22;;;;;;;2.88;1.80;;;;;;;28.76;32.74;100935.25;6161505;23;20016;-73
2022/06/18 10:38:53;;;;;;;1.70;1.60;;;;;;;28.75;33.17;100953.72;6211660;23;20343;-73
2022/06/18 10:41:43;;;;;;;2.05;1.70;;;;;;;28.68;32.10;100949.38;6211856;23;20319;-73
2022/06/18 10:44:09;;;;;;;1.85;1.70;;;;;;;28.73;32.01;100944.00;6211389;23;20005;-73
2022/06/18 10:46:35;;;;;;;2.83;1.75;;;;;;;28.71;31.74;100937.88;6210944;23;20015;-72
2022/06/18 10:49:04;;;;;;;2.22;1.60;;;;;;;28.64;31.67;100935.22;6211311;23;20342;-73
2022/06/18 10:51:41;;;;;;;1.58;1.48;;;;;;;28.69;31.99;100940.03;6211350;23;20457;-73
2022/06/18 10:54:07;;;;;;;1.88;1.67;;;;;;;28.68;32.20;100930.91;6211431;23;20009;-73
2022/06/18 10:56:51;;;;;;;1.80;1.65;;;;;;;28.70;32.08;100938.94;6211055;23;19996;-73
2022/06/18 10:59:38;;;;;;;3.58;1.70;;;;;;;28.64;32.61;100926.94;6211538;23;20005;-73
2022/06/18 11:02:09;;;;;;;4.97;1.75;;;;;;;28.63;32.86;100922.47;6211142;23;20014;-73
2022/06/18 11:04:36;;;;;;;2.60;1.70;;;;;;;28.54;32.90;100927.50;6211115;23;20091;-73
2022/06/18 11:07:12;;;;;;;5.15;1.55;;;;;;;28.56;32.76;100920.94;6211214;23;20008;-73
2022/06/18 11:09:53;;;;;;;2.45;1.40;;;;;;;28.47;32.70;100920.44;6211277;23;20402;-73
2022/06/18 11:12:29;;;;;;;1.85;1.60;;;;;;;28.50;32.20;100918.03;6211652;23;20095;-73
2022/06/18 11:14:55;;;;;;;2.08;1.42;;;;;;;28.49;33.06;100921.88;6211508;23;20031;-73
2022/06/18 11:17:41;;;;;;;2.72;1.70;;;;;;;28.54;32.94;100913.69;6211264;23;20012;-72
2022/06/18 11:20:17;;;;;;;2.13;1.50;;;;;;;28.63;33.25;100922.47;6211221;23;20315;-72
2022/06/18 11:22:44;;;;;;;2.42;1.40;;;;;;;28.72;33.38;100914.72;6211876;23;20000;-73
2022/06/18 11:25:30;;;;;;;4.28;1.70;;;;;;;28.74;33.50;100912.53;6213070;23;20009;-73
2022/06/18 11:28:00;;;;;;;2.20;1.50;;;;;;;28.70;33.24;100903.06;6212931;23;20096;-72
2022/06/18 11:30:38;;;;;;;1.60;1.50;;;;;;;28.54;32.74;100899.91;6213059;23;20016;-72
2022/06/18 11:33:16;;;;;;;1.88;1.70;;;;;;;28.51;32.91;100897.59;6213425;23;20000;-73
2022/06/18 11:35:42;;;;;;;4.85;1.77;;;;;;;28.45;32.88;100914.28;6213053;23;20017;-72
2022/06/18 11:38:32;;;;;;;4.57;1.58;;;;;;;28.29;32.33;100910.28;6212788;23;20004;-73
2022/06/18 11:41:29;;;;;;;2.20;1.55;;;;;;;28.32;32.45;100906.19;6212865;23;20015;-73
2022/06/18 11:44:04;;;;;;;4.93;1.83;;;;;;;28.31;32.15;100899.81;6203207;23;20008;-73
2022/06/18 11:46:33;;;;;;;2.30;1.52;;;;;;;28.33;32.66;100905.09;6212420;23;20007;-73
2022/06/18 11:49:22;;;;;;;2.85;1.77;;;;;;;28.31;32.58;100896.25;6212670;23;20422;-73
2022/06/18 11:51:53;;;;;;;2.50;1.70;;;;;;;28.31;32.82;100894.31;6212556;23;20016;-73
2022/06/18 11:54:27;;;;;;;2.58;1.75;;;;;;;28.26;33.39;100894.19;6212722;23;20010;-73